Decoded Metar for YPPD (PORT HEDLAND in AUSTRALIA) (IATA:PHE) | Meteo·Mobile Aviation Weather
aviador You're here:

YPPD Decoded Metar

PORT HEDLAND in AUSTRALIA
Report Time2018-11-16 07:30:00
UTC Time2018-11-16 07:48:00
Flight Rules vfr VFR
Wind310° at 09 kt
W.Decomp.*RWY 32: 8.8 kt HW 1.7 kt LCW
RWY 36: 5.7 kt HW 7 kt LCW
W.Rank310° ranks 1
Current wind is below 310° avg. (10.6)
Visibility9999 m
Phenomena:N/A
Clouds:N/A
Expected CloudBase > 8,000 ft AGL from Temp-Dew spread
CeilingNone
Temp36°C (ISA +21)
Dew Point16°C (30% RH)
Heat Index36.2°C
AAT34.6°C
QNH1008 hPa
Density Alt2,812 ft
Elevation20 ft
Report Wrong Elevation
Raw Report
YPPD 160730Z AUTO 31009KT 9999 // NCD 36/16 Q1008=

Extra information for YPPD:More info

Metar Taf Metar & Taf Last 4 Metars F.Rules Stats Wind Profile Meteogram Temp Stats Airport Information Weather charts Add Link Nearby VenuesMetar ALERT Operation Metar Decoded Social comments